Aviation Digital Data Service (ADDS)

Output produced by METARs form (1605 UTC 03 December 2021)
found at http://aviationweather.gov/metar/data/
 
KAEX 031403Z 0314/0412 22004KT 1/4SM FG BKN003 OVC011 
     FM031500 19002KT 2SM BR BKN007 
     FM031600 19006KT P6SM SCT080 
     FM040000 20004KT P6SM SCT120 
     FM040600 19003KT 4SM BR BKN250